Tiempo atmosférico en la estación meteorológica de Manilva, Málaga (140 m.)



Fecha
DESCASC
Temp. máxima en grados centígrados (hora)
DESCASC
Temp. mínima en grados centígrados (hora)
DESCASC
Temp. media en grados centígrados
DESCASC
Racha de viento máxima en m/sg (hora)
DESCASC
Velocidad máxima media en intervalos de 10 minutos(hora)
DESCASC
Precipitaciones diarias en mm
DESCASC
Precipitaciones de 00:00 a 06:00 en mm
DESCASC
Precipitaciones de 06:00 a 12:00 en mm
DESCASC
Precipitaciones de 12:00 a 18:00 en mm
DESCASC
Precipitaciones de 18:00 a 24:00 en mm
DESCASC
24-05-2020 24.1 (11:00) 19 (22:30) 21.6 12.5 (14:00) 7.5 (14:00) 0 0 0 0 0
23-05-2020 27 (10:50) 20 (02:20) 23.5 7.78 (06:20) 4.17 (10:10) 0 0 0 0 0
22-05-2020 28.2 (15:20) 18.8 (07:00) 23.5 4.44 (11:50) 2.78 (15:40) 0 0 0 0 0
21-05-2020 29.5 (11:40) 18.4 (00:00) 23.9 8.61 (01:40) 6.11 (00:30) 0 0 0 0 0
20-05-2020 31.9 (20:00) 18 (00:00) 24.9 8.61 (23:10) 5.56 (22:50) 0 0 0 0 0
19-05-2020 27.4 (19:10) 15.4 (00:00) 21.4 4.72 (15:00) 3.33 (15:00) 0 0 0 0 0
18-05-2020 24.5 (19:00) 13.8 (00:00) 19.2 5.28 (15:30) 3.61 (02:40) 0.2 0 0 0.2 0
17-05-2020 21.5 (12:00) 13.5 (00:00) 17.5 6.67 (19:10) 4.72 (19:20) 2.6 0 0 2 0.6
16-05-2020 22.9 (18:00) 12.8 (00:00) 17.8 5.56 (12:00) 3.33 (14:00) 0 0 0 0 0
15-05-2020 19.1 (16:50) 11.7 (00:00) 15.4 7.5 (12:40) 5 (12:40) 0 0 0 0 0
14-05-2020 19 (17:10) 10.8 (00:00) 14.9 13.89 (14:30) 8.33 (15:10) 29.4 14 11.4 2.4 1.6
13-05-2020 20.5 (14:10) 11.5 (00:00) 16 11.94 (19:00) 7.22 (19:00) 9.2 0 0 0.8 8.4
12-05-2020 19.1 (18:30) 12.6 (00:00) 15.9 10.83 (19:30) 6.11 (19:20) 14.4 0 13.6 0.8 0
11-05-2020 21.5 (14:20) 14.1 (00:00) 17.8 12.5 (13:50) 7.5 (16:10) 0 0 0 0 0
10-05-2020 20.4 (17:00) 13.8 (00:00) 17.1 16.67 (13:20) 8.89 (16:50) 5.2 0.4 3.2 1.6 0
09-05-2020 22.8 (14:10) 14.3 (00:00) 18.5 11.67 (19:40) 7.78 (18:20) 0 0 0 0 0
08-05-2020 24.1 (18:50) 17.4 (00:00) 20.8 8.33 (13:10) 5.56 (13:10) 0 0 0 0 0
07-05-2020 21.7 (17:10) 17.5 (00:00) 19.6 11.94 (11:10) 7.5 (11:30) 0 0 0 0 0
06-05-2020 28.4 (17:10) 16.2 (00:00) 22.3 13.89 (00:30) 10.28 (00:30) 0 0 0 0 0
05-05-2020 30 (16:30) 16.2 (00:00) 23.1 13.61 (00:20) 9.72 (00:10) 0 0 0 0 0
04-05-2020 28.6 (18:30) 18.9 (00:00) 23.8 13.33 (23:50) 10 (23:50) 0 0 0 0 0
03-05-2020 25.2 (17:50) 17 (00:00) 21.1 6.11 (11:10) 3.89 (14:20) 0 0 0 0 0
02-05-2020 28.5 (17:00) 18.6 (00:00) 23.6 6.39 (03:20) 4.72 (03:00) 0 0 0 0 0
01-05-2020 30.1 (17:50) 15 (00:00) 22.6 10 (01:50) 7.22 (00:50) 0 0 0 0 0
30-04-2020 24.2 (17:10) 13.1 (00:00) 18.7 11.94 (23:20) 8.61 (23:20) 0 0 0 0 0
29-04-2020 24 (16:40) 12.8 (00:00) 18.4 13.33 (17:50) 8.61 (21:40) 0 0 0 0 0
28-04-2020 21.7 (15:20) 12.4 (00:00) 17.1 11.11 (17:30) 6.39 (23:30) 0 0 0 0 0
27-04-2020 20.2 (17:10) 11.1 (00:00) 15.7 11.94 (19:50) 7.22 (19:40) 0 0 0 0 0

Gráficas

Temp. máximas Temp. mínimas Temp. medias Precipitaciones Rachas de viento máximas Velocidades máximas media en intervalos de 10 minutos

Datos horarios

Fecha y hora oficial Temperatura (ºC) Velocidad del viento (km/h) Dirección del viento Racha (km/h) Dirección de racha Precipitación (mm) Presión (hPa) Tendencia (hPa) Humedad (%)
2020-05-26 23:00:00 20.2 23 Sudeste 38 Sudeste 0 -- -- 68
2020-05-26 22:00:00 20.1 22 Sudeste 39 Sudeste 0 -- -- 67
2020-05-26 21:00:00 20.6 22 Sudeste 41 Sudeste 0 -- -- 67
2020-05-26 20:00:00 21.4 23 Sudeste 40 Este 0 -- -- 63
2020-05-26 19:00:00 21.9 21 Sudeste 40 Sudeste 0 -- -- 63
2020-05-26 18:00:00 21.8 28 Sudeste 45 Sudeste 0 -- -- 63
2020-05-26 17:00:00 22 30 Sudeste 45 Este 0 -- -- 61
2020-05-26 16:00:00 22.4 29 Sudeste 46 Sudeste 0 -- -- 60
2020-05-26 15:00:00 22.6 26 Sudeste 45 Este 0 -- -- 58
2020-05-26 14:00:00 22.7 28 Sudeste 47 Sudeste 0 -- -- 55
2020-05-26 13:00:00 22.8 27 Sudeste 43 Sudeste 0 -- -- 51
2020-05-26 12:00:00 22.7 24 Sudeste 45 Este 0 -- -- 51
2020-05-26 11:00:00 22.3 26 Sudeste 41 Sudeste 0 -- -- 51
2020-05-26 10:00:00 21.3 19 Sudeste 32 Sudeste 0 -- -- 58
2020-05-26 09:00:00 20.2 20 Sudeste 36 Sudeste 0 -- -- 64
2020-05-26 08:00:00 19.2 19 Sudeste 33 Sudeste 0 -- -- 65
2020-05-26 07:00:00 19.3 18 Sudeste 32 Sudeste 0 -- -- 59
2020-05-26 06:00:00 19.7 12 Sudeste 33 Este 0 -- -- 47
2020-05-26 05:00:00 19.9 15 Sudeste 30 Sudeste 0 -- -- 45
2020-05-26 04:00:00 19.8 17 Sudeste 30 Sudeste 0 -- -- 48
2020-05-26 03:00:00 19.7 17 Sudeste 32 Sudeste 0 -- -- 54
2020-05-26 02:00:00 19.7 13 Sudeste 34 Sudeste 0 -- -- 52
2020-05-26 01:00:00 18.7 18 Sudeste 33 Sudeste 0 -- -- 66
2020-05-26 00:00:00 18.9 19 Sudeste 32 Sudeste 0 -- -- 75
2020-05-25 23:00:00 19 21 Sudeste 36 Sudeste 0 -- -- 76
2020-05-25 22:00:00 18.9 22 Sudeste 41 Sudeste 0 -- -- 81
2020-05-25 21:00:00 19.8 20 Sudeste 39 Sudeste 0 -- -- 76
2020-05-25 20:00:00 20.3 23 Sudeste 33 Sudeste 0 -- -- 78
2020-05-25 19:00:00 20.9 20 Sudeste 35 Sudeste 0 -- -- 76
2020-05-25 18:00:00 21.1 13 Sudeste 32 Este 0 -- -- 80
2020-05-25 17:00:00 22.3 18 Sudeste 36 Sudeste 0 -- -- 74
2020-05-25 16:00:00 22.4 18 Sudeste 39 Sudeste 0 -- -- 73
2020-05-25 15:00:00 21.8 19 Sudeste 36 Sudeste 0 -- -- 74
2020-05-25 14:00:00 21.9 17 Sudeste 33 Sudeste 0 -- -- 72
2020-05-25 13:00:00 22.2 20 Sudeste 36 Sudeste 0 -- -- 69
2020-05-25 12:00:00 21.2 21 Sudeste 36 Sudeste 0 -- -- 73
2020-05-25 11:00:00 20.7 21 Sudeste 33 Sudeste 0 -- -- 74
2020-05-25 10:00:00 20.3 17 Sudeste 34 Sudeste 0 -- -- 79
2020-05-25 09:00:00 19 19 Sudeste 30 Sudeste 0 -- -- 80
2020-05-25 08:00:00 18.1 13 Sudeste 23 Sudeste 0 -- -- 82
2020-05-25 07:00:00 17.5 10 Sudeste 21 Este 0 -- -- 88
2020-05-25 06:00:00 17.6 11 Sudeste 26 Sudeste 0 -- -- 87
2020-05-25 05:00:00 17.9 13 Sudeste 22 Sudeste 0 -- -- 87
2020-05-25 04:00:00 18.1 13 Sudeste 25 Sudeste 0 -- -- 86
2020-05-25 03:00:00 18.5 15 Sudeste 28 Sudeste 0 -- -- 84
2020-05-25 02:00:00 18.9 13 Sudeste 28 Este 0 -- -- 83
2020-05-25 01:00:00 18.8 14 Sudeste 25 Sudeste 0 -- -- 77
2020-05-25 00:00:00 19.1 12 Sudeste 27 Sudeste 0 -- -- 83
2020-05-24 23:00:00 19.4 15 Sudeste 24 Sudeste 0 -- -- 72
2020-05-24 22:00:00 19.5 13 Sudeste 25 Sudeste 0 -- -- 81
2020-05-24 21:00:00 21.1 12 Sudeste 32 Este 0 -- -- 66
2020-05-24 20:00:00 21.7 16 Sudeste 29 Este 0 -- -- 66
2020-05-24 19:00:00 22 19 Sudeste 32 Sudeste 0 -- -- 68
2020-05-24 18:00:00 22.4 21 Sudeste 33 Sudeste 0 -- -- 68
2020-05-24 17:00:00 22.4 21 Sudeste 34 Sudeste 0 -- -- 70
2020-05-24 16:00:00 22.8 21 Sudeste 37 Este 0 -- -- 71
2020-05-24 15:00:00 23.1 20 Sudeste 41 Este 0 -- -- 67
2020-05-24 14:00:00 22.9 27 Sudeste 45 Este 0 -- -- 65
2020-05-24 13:00:00 23.6 22 Sudeste 40 Este 0 -- -- 59
2020-05-24 12:00:00 23.6 21 Sudeste 35 Sudeste 0 -- -- 58
2020-05-24 11:00:00 24.1 17 Sudeste 38 Sudeste 0 -- -- 51
2020-05-24 10:00:00 23.6 19 Sudeste 34 Sudeste 0 -- -- 48
2020-05-24 09:00:00 23.3 15 Sudeste 30 Este 0 -- -- 45
2020-05-24 08:00:00 21.4 8 Sudeste 18 Sudeste 0 -- -- 48
2020-05-24 07:00:00 20.8 2 Este 18 Sudeste 0 -- -- 50
2020-05-24 06:00:00 21.8 12 Sudeste 21 Sudeste 0 -- -- 47
2020-05-24 05:00:00 21.6 5 Sudeste 17 Sudeste 0 -- -- 50
2020-05-24 04:00:00 22.9 8 Sudeste 19 Sudeste 0 -- -- 45
2020-05-24 03:00:00 22.4 8 Sudeste 15 Nordeste 0 -- -- 46
2020-05-24 02:00:00 22.2 3 Este 13 Sudeste 0 -- -- 49
2020-05-24 01:00:00 21.4 0 Calma 5 Este 0 -- -- 52
2020-05-24 00:00:00 21.3 0 Calma 5 Nordeste 0 -- -- 55
2020-05-23 23:00:00 21.5 3 Norte 8 Nordeste 0 -- -- 56
2020-05-23 22:00:00 22.4 3 Nordeste 13 Este 0 -- -- 54
2020-05-23 21:00:00 24.5 5 Este 14 Este 0 -- -- 48
2020-05-23 20:00:00 25.9 6 Sudeste 22 Este 0 -- -- 46
2020-05-23 19:00:00 26.4 9 Sudeste 19 Sudeste 0 -- -- 43
2020-05-23 18:00:00 26.1 9 Este 22 Este 0 -- -- 44
2020-05-23 17:00:00 26.3 12 Sudeste 23 Sudeste 0 -- -- 43
2020-05-23 16:00:00 26.7 12 Sudeste 22 Sur 0 -- -- 42
2020-05-23 15:00:00 26.8 14 Sudeste 24 Sudeste 0 -- -- 42
2020-05-23 14:00:00 26.3 13 Este 23 Sudeste 0 -- -- 42
2020-05-23 13:00:00 25.9 10 Sudeste 22 Sudeste 0 -- -- 49
2020-05-23 12:00:00 26.1 12 Sur 21 Sur 0 -- -- 45
2020-05-23 11:00:00 26.8 11 Sudeste 25 Sudeste 0 -- -- 41
2020-05-23 10:00:00 26.3 13 Sudeste 25 Sudeste 0 -- -- 41
2020-05-23 09:00:00 24.4 5 Este 15 Este 0 -- -- 48
2020-05-23 08:00:00 21.2 2 Este 13 Nordeste 0 -- -- 53
2020-05-23 07:00:00 20.7 3 Nordeste 28 Este 0 -- -- 53
2020-05-23 06:00:00 21 9 Sudeste 21 Sudeste 0 -- -- 55
2020-05-23 05:00:00 21.4 8 Sudeste 16 Sudeste 0 -- -- 56
2020-05-23 04:00:00 20.2 4 Nordeste 10 Nordeste 0 -- -- 62
2020-05-23 03:00:00 20.2 6 Nordeste 12 Nordeste 0 -- -- 69
2020-05-23 02:00:00 20.3 4 Nordeste 7 Nordeste 0 -- -- 65
2020-05-23 01:00:00 20.9 3 Nordeste 5 Nordeste 0 -- -- 63
2020-05-23 00:00:00 21.7 5 Norte 6 Nordeste 0 -- -- 60
2020-05-22 23:00:00 21.6 3 Noroeste 6 Norte 0 -- -- 60
2020-05-22 22:00:00 23.4 3 Norte 6 Este 0 -- -- 52
2020-05-22 21:00:00 26.3 3 Nordeste 10 Este 0 -- -- 43
2020-05-22 20:00:00 26.8 5 Este 10 Este 0 -- -- 45
2020-05-22 19:00:00 28.2 4 Este 12 Sudeste 0 -- -- 46
2020-05-22 18:00:00 27.1 7 Este 14 Sudeste 0 -- -- 45
2020-05-22 17:00:00 26.8 8 Este 14 Sudeste 0 -- -- 45
2020-05-22 16:00:00 27.1 10 Este 15 Este 0 -- -- 43
2020-05-22 15:00:00 27.8 6 Sudeste 13 Sudeste 0 -- -- 44
2020-05-22 14:00:00 26.8 8 Este 16 Este 0 -- -- 43
2020-05-22 13:00:00 26 5 Este 15 Sudeste 0 -- -- 48
2020-05-22 12:00:00 24.9 9 Sudeste 16 Sudeste 0 -- -- 49
2020-05-22 11:00:00 24.9 7 Sur 12 Sur 0 -- -- 49
2020-05-22 10:00:00 23.9 6 Sur 10 Sur 0 -- -- 54
2020-05-22 09:00:00 22.6 0 Calma 8 Norte 0 -- -- 60
2020-05-22 08:00:00 19.3 2 Norte 5 Nordeste 0 -- -- 71
2020-05-22 07:00:00 18.8 4 Norte 5 Nordeste 0 -- -- 74
2020-05-22 06:00:00 19.1 3 Norte 6 Norte 0 -- -- 72
2020-05-22 05:00:00 19.4 4 Norte 7 Noroeste 0 -- -- 73
2020-05-22 04:00:00 19.1 4 Norte 8 Norte 0 -- -- 76
2020-05-22 03:00:00 20.3 3 Nordeste 8 Norte 0 -- -- 78
2020-05-22 02:00:00 19.8 5 Nordeste 6 Nordeste 0 -- -- 79
2020-05-22 01:00:00 20.3 0 Calma 8 Noroeste 0 -- -- 76
2020-05-22 00:00:00 21.7 3 Norte 10 Noroeste 0 -- -- 74
2020-05-21 23:00:00 22.4 3 Norte 11 Norte 0 -- -- 70
2020-05-21 22:00:00 23.4 2 Sudoeste 5 Noroeste 0 -- -- 67
2020-05-21 21:00:00 25.4 0 Calma 8 Este 0 -- -- 60
2020-05-21 20:00:00 25.5 4 Este 12 Nordeste 0 -- -- 61
2020-05-21 19:00:00 25.6 8 Este 15 Este 0 -- -- 58
2020-05-21 18:00:00 25.1 12 Este 17 Este 0 -- -- 61
2020-05-21 17:00:00 25.2 9 Sudeste 16 Este 0 -- -- 61
2020-05-21 16:00:00 28.1 8 Este 13 Este 0 -- -- 50
2020-05-21 15:00:00 28 6 Este 12 Este 0 -- -- 47
2020-05-21 14:00:00 27.8 6 Sudeste 12 Este 0 -- -- 49
2020-05-21 13:00:00 27.4 6 Este 13 Este 0 -- -- 50
2020-05-21 12:00:00 29.2 6 Nordeste 11 Sur 0 -- -- 51
2020-05-21 11:00:00 29.3 7 Sur 11 Sur 0 -- -- 50
2020-05-21 10:00:00 27 2 Este 11 Noroeste 0 -- -- 54
2020-05-21 09:00:00 23.8 2 Sur 11 Nordeste 0 -- -- 61
2020-05-21 08:00:00 19.2 0 Calma 19 Noroeste 0 -- -- 72
2020-05-21 07:00:00 18.6 2 Norte 5 Nordeste 0 -- -- 79
2020-05-21 06:00:00 19.2 4 Nordeste 5 Nordeste 0 -- -- 74
2020-05-21 05:00:00 20.5 2 Este 17 Nordeste 0 -- -- 66
2020-05-21 04:00:00 21.1 9 Nordeste 17 Norte 0 -- -- 61
2020-05-21 03:00:00 22 8 Norte 20 Noroeste 0 -- -- 59
2020-05-21 02:00:00 22.5 11 Norte 31 Noroeste 0 -- -- 59
2020-05-21 01:00:00 23.1 18 Noroeste 29 Noroeste 0 -- -- 60
2020-05-21 00:00:00 24 18 Noroeste 31 Noroeste 0 -- -- 58
2020-05-20 23:00:00 25 20 Noroeste 27 Noroeste 0 -- -- 54
2020-05-20 22:00:00 26.4 16 Noroeste 22 Noroeste 0 -- -- 51
2020-05-20 21:00:00 29.4 12 Noroeste 22 Oeste 0 -- -- 46
2020-05-20 20:00:00 31.9 11 Noroeste 20 Noroeste 0 -- -- 41
2020-05-20 19:00:00 30.8 3 Sur 9 Nordeste 0 -- -- 39
2020-05-20 18:00:00 29.7 4 Este 11 Este 0 -- -- 39
2020-05-20 17:00:00 28.1 8 Este 14 Nordeste 0 -- -- 45
2020-05-20 16:00:00 28.7 12 Nordeste 16 Nordeste 0 -- -- 48
2020-05-20 15:00:00 29.3 7 Sudeste 16 Sudeste 0 -- -- 41
2020-05-20 14:00:00 28 6 Sur 12 Sur 0 -- -- 43
2020-05-20 13:00:00 27 5 Sur 13 Sur 0 -- -- 51
2020-05-20 12:00:00 26.3 5 Sur 13 Este 0 -- -- 56
2020-05-20 11:00:00 25.2 3 Sur 12 Sur 0 -- -- 54
2020-05-20 10:00:00 23.7 5 Sur 9 Sur 0 -- -- 55
2020-05-20 09:00:00 21.8 4 Nordeste 5 Norte 0 -- -- 54
2020-05-20 08:00:00 18.9 2 Noroeste 8 Noroeste 0 -- -- 58
2020-05-20 07:00:00 18.6 6 Norte 10 Nordeste 0 -- -- 57
2020-05-20 06:00:00 18 0 Calma 6 Sudoeste 0 -- -- 60
2020-05-20 05:00:00 18.7 0 Calma 7 Noroeste 0 -- -- 57
2020-05-20 04:00:00 18.9 5 Noroeste 10 Noroeste 0 -- -- 58
2020-05-20 03:00:00 18.7 4 Noroeste 8 Noroeste 0 -- -- 61
2020-05-20 02:00:00 18.8 3 Norte 6 Noroeste 0 -- -- 61
2020-05-20 01:00:00 19 3 Norte 8 Nordeste 0 -- -- 61
2020-05-20 00:00:00 20.1 5 Nordeste 13 Noroeste 0 -- -- 57
2020-05-19 23:00:00 20.2 5 Noroeste 14 Noroeste 0 -- -- 56
2020-05-19 22:00:00 21.1 9 Noroeste 12 Noroeste 0 -- -- 53
2020-05-19 21:00:00 25 4 Noroeste 6 Noroeste 0 -- -- 47
2020-05-19 20:00:00 24.8 4 Sudoeste 10 Sudoeste 0 -- -- 47
2020-05-19 19:00:00 27.2 3 Sur 9 Sudeste 0 -- -- 37
2020-05-19 18:00:00 26.7 5 Sur 14 Sur 0 -- -- 41
2020-05-19 17:00:00 25.3 10 Sur 15 Sur 0 -- -- 40
2020-05-19 16:00:00 26.1 6 Sur 16 Sudeste 0 -- -- 44
2020-05-19 15:00:00 25.6 12 Sur 17 Sur 0 -- -- 45
2020-05-19 14:00:00 24.9 7 Sur 13 Sudoeste 0 -- -- 49
2020-05-19 13:00:00 25.1 5 Sur 11 Sudeste 0 -- -- 53
2020-05-19 12:00:00 24.5 8 Sur 12 Sur 0 -- -- 53
2020-05-19 11:00:00 23.7 5 Sur 9 Sudoeste 0 -- -- 63
2020-05-19 10:00:00 22.2 2 Sudeste 5 Sur 0 -- -- 62
2020-05-19 09:00:00 19.5 0 Calma 3 Sur 0 -- -- 68
2020-05-19 08:00:00 15.8 0 Calma 5 Noroeste 0 -- -- 78
2020-05-19 07:00:00 15.4 2 Noroeste 6 Noroeste 0 -- -- 75
2020-05-19 06:00:00 16 4 Noroeste 6 Noroeste 0 -- -- 76
2020-05-19 05:00:00 16.9 4 Nordeste 9 Nordeste 0 -- -- 76
2020-05-19 04:00:00 17 5 Norte 8 Norte 0 -- -- 74
2020-05-19 03:00:00 17.1 4 Nordeste 6 Norte 0 -- -- 76
2020-05-19 02:00:00 17.8 5 Norte 11 Nordeste 0 -- -- 73
2020-05-19 01:00:00 18.9 7 Nordeste 14 Noroeste 0 -- -- 69
2020-05-19 00:00:00 18.8 4 Norte 13 Noroeste 0 -- -- 66
2020-05-18 23:00:00 18.8 8 Noroeste 13 Noroeste 0 -- -- 64
2020-05-18 22:00:00 19.6 3 Noroeste 6 Noroeste 0 -- -- 61
2020-05-18 21:00:00 22.6 2 Noroeste 8 Sudoeste 0 -- -- 56
2020-05-18 20:00:00 23.8 5 Sur 12 Sudeste 0 -- -- 55
2020-05-18 19:00:00 24.5 6 Sur 13 Sur 0 -- -- 51
2020-05-18 18:00:00 24.3 7 Sur 14 Sur 0 -- -- 52
2020-05-18 17:00:00 23.7 9 Sur 14 Sur 0 -- -- 54
2020-05-18 16:00:00 22.9 9 Sur 19 Sur 0 -- -- 58
2020-05-18 15:00:00 22.6 9 Sur 17 Sudeste 0 -- -- 59
2020-05-18 14:00:00 22.4 9 Sudeste 18 Sudeste 0 -- -- 54
2020-05-18 13:00:00 21.7 10 Sur 17 Sudeste 0.2 -- -- 65
2020-05-18 12:00:00 21.9 9 Sur 14 Sur 0 -- -- 68
2020-05-18 11:00:00 21 3 Noroeste 8 Sur 0 -- -- 68
2020-05-18 10:00:00 19.6 3 Sudoeste 6 Sudoeste 0 -- -- 74
2020-05-18 09:00:00 18.3 3 Sur 5 Sur 0 -- -- 72
2020-05-18 08:00:00 14.3 0 Calma 7 Noroeste 0 -- -- 84
2020-05-18 07:00:00 14.2 4 Noroeste 8 Noroeste 0 -- -- 83
2020-05-18 06:00:00 13.8 5 Noroeste 6 Noroeste 0 -- -- 83
2020-05-18 05:00:00 14.1 3 Norte 10 Noroeste 0 -- -- 83
2020-05-18 04:00:00 14.3 6 Noroeste 13 Noroeste 0 -- -- 84
2020-05-18 03:00:00 14.6 7 Noroeste 15 Noroeste 0 -- -- 83
2020-05-18 02:00:00 14.5 10 Noroeste 14 Noroeste 0 -- -- 85
2020-05-18 01:00:00 14.3 5 Noroeste 10 Noroeste 0 -- -- 85
2020-05-18 00:00:00 14.8 4 Noroeste 7 Noroeste 0 -- -- 84
2020-05-17 23:00:00 15 4 Norte 8 Noroeste 0 -- -- 85
2020-05-17 22:00:00 15.9 2 Norte 7 Este 0 -- -- 83
2020-05-17 21:00:00 17.6 5 Nordeste 8 Este 0 -- -- 80
2020-05-17 20:00:00 19.1 5 Nordeste 24 Noroeste 0 -- -- 74
2020-05-17 19:00:00 16.3 13 Norte 23 Norte 0.6 -- -- 88
2020-05-17 18:00:00 16.8 5 Nordeste 12 Norte 1.6 -- -- 84
2020-05-17 17:00:00 17.8 4 Nordeste 9 Norte 0.4 -- -- 76
2020-05-17 16:00:00 17.9 5 Nordeste 12 Este 0 -- -- 76
2020-05-17 15:00:00 18.5 5 Sudeste 17 Sudeste 0 -- -- 69
2020-05-17 14:00:00 20.9 9 Sudeste 18 Sudeste 0 -- -- 62
2020-05-17 13:00:00 20.8 7 Sudeste 15 Sur 0 -- -- 61
2020-05-17 12:00:00 21.5 7 Sudeste 12 Sudeste 0 -- -- 56
2020-05-17 11:00:00 20.4 6 Sur 13 Sur 0 -- -- 63
2020-05-17 10:00:00 17.7 2 Nordeste 7 Nordeste 0 -- -- 69
2020-05-17 09:00:00 17.1 5 Nordeste 13 Noroeste 0 -- -- 71
2020-05-17 08:00:00 14.3 11 Noroeste 16 Noroeste 0 -- -- 79
2020-05-17 07:00:00 13.6 4 Norte 6 Noroeste 0 -- -- 79
2020-05-17 06:00:00 13.7 4 Norte 6 Norte 0 -- -- 80
2020-05-17 05:00:00 13.7 4 Noroeste 10 Noroeste 0 -- -- 80
2020-05-17 04:00:00 13.6 4 Norte 8 Noroeste 0 -- -- 80
2020-05-17 03:00:00 14.1 3 Norte 6 Nordeste 0 -- -- 79
2020-05-17 02:00:00 14.6 3 Norte 13 Noroeste 0 -- -- 76
2020-05-17 01:00:00 15.3 8 Noroeste 14 Noroeste 0 -- -- 75
2020-05-17 00:00:00 15.2 9 Noroeste 16 Noroeste 0 -- -- 80
2020-05-16 23:00:00 15.1 5 Norte 9 Norte 0 -- -- 79
2020-05-16 22:00:00 16 5 Noroeste 15 Norte 0 -- -- 74
2020-05-16 21:00:00 17.6 5 Sudoeste 13 Sudoeste 0 -- -- 72
2020-05-16 20:00:00 20.9 5 Oeste 15 Nordeste 0 -- -- 60
2020-05-16 19:00:00 21.1 5 Nordeste 17 Sudeste 0 -- -- 58
2020-05-16 18:00:00 22.9 10 Norte 19 Noroeste 0 -- -- 54
2020-05-16 17:00:00 21.1 6 Sur 12 Sur 0 -- -- 55
2020-05-16 16:00:00 20 6 Sur 14 Sudeste 0 -- -- 57
2020-05-16 15:00:00 19.8 8 Sur 18 Sur 0 -- -- 58
2020-05-16 14:00:00 20.7 12 Sur 20 Sur 0 -- -- 58
2020-05-16 13:00:00 20.3 10 Sudeste 20 Sudeste 0 -- -- 58
2020-05-16 12:00:00 20.7 11 Sur 20 Sudeste 0 -- -- 58
2020-05-16 11:00:00 20.3 3 Sur 9 Sudeste 0 -- -- 59
2020-05-16 10:00:00 19 4 Sur 10 Sur 0 -- -- 65
2020-05-16 09:00:00 16 3 Sudeste 5 Sur 0 -- -- 78
2020-05-16 08:00:00 13.4 5 Noroeste 9 Noroeste 0 -- -- 84
2020-05-16 07:00:00 12.8 4 Noroeste 8 Noroeste 0 -- -- 83
2020-05-16 06:00:00 13.6 2 Este 8 Noroeste 0 -- -- 82
2020-05-16 05:00:00 14.1 5 Norte 7 Noroeste 0 -- -- 81
2020-05-16 04:00:00 14 3 Noroeste 8 Noroeste 0 -- -- 81
2020-05-16 03:00:00 14.1 4 Noroeste 10 Noroeste 0 -- -- 81
2020-05-16 02:00:00 14.2 8 Noroeste 12 Noroeste 0 -- -- 80
2020-05-16 01:00:00 14 8 Noroeste 10 Noroeste 0 -- -- 79
2020-05-16 00:00:00 14.7 3 Noroeste 5 Norte 0 -- -- 77
2020-05-15 23:00:00 15.1 0 Calma 5 Nordeste 0 -- -- 76
2020-05-15 22:00:00 16 3 Norte 6 Norte 0 -- -- 72
2020-05-15 21:00:00 17.1 2 Sudoeste 9 Sur 0 -- -- 70
2020-05-15 20:00:00 18.1 4 Sur 9 Sur 0 -- -- 64
2020-05-15 19:00:00 18.5 5 Sudeste 12 Sudeste 0 -- -- 66
2020-05-15 18:00:00 18.4 5 Sur 17 Sur 0 -- -- 68
2020-05-15 17:00:00 18.9 8 Sur 17 Sudeste 0 -- -- 66
2020-05-15 16:00:00 17.9 9 Sudeste 22 Sudeste 0 -- -- 72
2020-05-15 15:00:00 18.3 13 Sudeste 22 Sudeste 0 -- -- 68
2020-05-15 14:00:00 17.3 14 Sudeste 23 Este 0 -- -- 72
2020-05-15 13:00:00 16.9 14 Sudeste 27 Sudeste 0 -- -- 78
2020-05-15 12:00:00 16.8 12 Sudeste 23 Sudeste 0 -- -- 77
2020-05-15 11:00:00 16 12 Sudeste 24 Sudeste 0 -- -- 78
2020-05-15 10:00:00 16.6 12 Sudeste 22 Este 0 -- -- 76
2020-05-15 09:00:00 15.7 2 Sudeste 11 Este 0 -- -- 79
2020-05-15 08:00:00 13 2 Nordeste 6 Nordeste 0 -- -- 81
2020-05-15 07:00:00 12.6 2 Nordeste 8 Sudeste 0 -- -- 81
2020-05-15 06:00:00 12.7 4 Nordeste 9 Este 0 -- -- 81
2020-05-15 05:00:00 12.2 3 Norte 6 Noroeste 0 -- -- 84
2020-05-15 04:00:00 11.7 5 Norte 6 Noroeste 0 -- -- 87
2020-05-15 03:00:00 11.8 3 Norte 6 Noroeste 0 -- -- 88
2020-05-15 02:00:00 11.9 6 Norte 12 Noroeste 0 -- -- 90
2020-05-15 01:00:00 12.4 3 Norte 8 Noroeste 0 -- -- 89
2020-05-15 00:00:00 13 3 Noroeste 9 Nordeste 0 -- -- 87
2020-05-14 23:00:00 13.7 0 Calma 10 Nordeste 0 -- -- 87
2020-05-14 22:00:00 13.7 3 Sudoeste 33 Sudoeste 1.4 -- -- 86
2020-05-14 21:00:00 15.5 12 Sudoeste 39 Sudoeste 0.2 -- -- 73
2020-05-14 20:00:00 18.5 19 Oeste 36 Sudoeste 0 -- -- 57
2020-05-14 19:00:00 18 24 Sudoeste 40 Sudoeste 0 -- -- 63
2020-05-14 18:00:00 18.9 23 Oeste 41 Sudoeste 0 -- -- 59
2020-05-14 17:00:00 18.6 24 Sudoeste 37 Sudoeste 0 -- -- 63
2020-05-14 16:00:00 17.7 16 Sudoeste 46 Sudoeste 0 -- -- 76
2020-05-14 15:00:00 16.1 19 Sudoeste 50 Sudoeste 2.2 -- -- 88
2020-05-14 14:00:00 15.8 14 Sudoeste 26 Sudoeste 0 -- -- 83
2020-05-14 13:00:00 13.8 14 Sudoeste 35 Sudoeste 0.2 -- -- 89
2020-05-14 12:00:00 13.4 20 Oeste 42 Sudoeste 2.4 -- -- 91
2020-05-14 11:00:00 13.9 15 Sudoeste 37 Sudoeste 0 -- -- 91
2020-05-14 10:00:00 13.1 7 Sudoeste 20 Sudoeste 0.4 -- -- 95
2020-05-14 09:00:00 12.3 0 Calma 6 Sur 0 -- -- 96
2020-05-14 08:00:00 11.7 2 Noroeste 10 Oeste 5.6 -- -- 96
2020-05-14 07:00:00 10.9 0 Calma 9 Nordeste 3 -- -- 95
2020-05-14 06:00:00 11 8 Nordeste 14 Norte 4.6 -- -- 95
2020-05-14 05:00:00 11.1 4 Sudoeste 28 Sudoeste 2.2 -- -- 94
2020-05-14 04:00:00 11.4 7 Noroeste 19 Oeste 2.8 -- -- 92
2020-05-14 03:00:00 11.9 15 Sudoeste 28 Oeste 4.4 -- -- 90
2020-05-14 02:00:00 12.8 5 Noroeste 16 Noroeste 0 -- -- 91
2020-05-14 01:00:00 12.7 10 Noroeste 15 Noroeste 0 -- -- 92
2020-05-14 00:00:00 12.9 7 Noroeste 17 Noroeste 0 -- -- 92
2020-05-13 23:00:00 12.8 10 Noroeste 17 Noroeste 0 -- -- 91
2020-05-13 22:00:00 13.1 6 Noroeste 24 Norte 0 -- -- 92
2020-05-13 21:00:00 13.2 9 Noroeste 16 Norte 0.4 -- -- 93
2020-05-13 20:00:00 13.3 8 Oeste 37 Oeste 0.6 -- -- 91
2020-05-13 19:00:00 14.8 26 Sudoeste 43 Sudoeste 7.4 -- -- 87
2020-05-13 18:00:00 16.8 7 Sur 16 Sur 0.8 -- -- 83
2020-05-13 17:00:00 18.2 11 Sur 25 Sur 0 -- -- 70
2020-05-13 16:00:00 19.4 17 Sur 30 Sur 0 -- -- 65
2020-05-13 15:00:00 19.7 15 Sur 27 Sur 0 -- -- 65
2020-05-13 14:00:00 20.3 14 Sur 22 Sur 0 -- -- 55
2020-05-13 13:00:00 18.8 6 Sudoeste 17 Oeste 0 -- -- 62
2020-05-13 12:00:00 18 4 Norte 21 Sudoeste 0 -- -- 67
2020-05-13 11:00:00 16.6 8 Sudoeste 20 Sudoeste 0 -- -- 73
2020-05-13 10:00:00 16.3 9 Sudoeste 17 Oeste 0 -- -- 72
2020-05-13 09:00:00 15.1 4 Noroeste 11 Noroeste 0 -- -- 79
2020-05-13 08:00:00 12.1 10 Noroeste 14 Noroeste 0 -- -- 86
2020-05-13 07:00:00 11.6 9 Noroeste 16 Noroeste 0 -- -- 86
2020-05-13 06:00:00 11.9 11 Noroeste 15 Noroeste 0 -- -- 85
2020-05-13 05:00:00 11.8 12 Noroeste 15 Norte 0 -- -- 84
2020-05-13 04:00:00 12.4 10 Noroeste 15 Noroeste 0 -- -- 83
2020-05-13 03:00:00 12.4 8 Noroeste 15 Noroeste 0 -- -- 84
2020-05-13 02:00:00 12.5 12 Noroeste 15 Noroeste 0 -- -- 83
2020-05-13 01:00:00 12.8 9 Noroeste 12 Noroeste 0 -- -- 84
2020-05-13 00:00:00 13.2 6 Noroeste 11 Noroeste 0 -- -- 84
2020-05-12 23:00:00 13.8 8 Noroeste 17 Oeste 0 -- -- 81
2020-05-12 22:00:00 14.8 13 Oeste 23 Noroeste 0 -- -- 76
2020-05-12 21:00:00 16.7 10 Oeste 30 Oeste 0 -- -- 68
2020-05-12 20:00:00 18 16 Oeste 39 Oeste 0 -- -- 62
2020-05-12 19:00:00 17.8 18 Oeste 35 Sudoeste 0 -- -- 62
2020-05-12 18:00:00 18.9 20 Oeste 30 Noroeste 0 -- -- 60
2020-05-12 17:00:00 17.5 10 Oeste 17 Oeste 0 -- -- 71
2020-05-12 16:00:00 16.6 6 Sudoeste 12 Sur 0 -- -- 80
2020-05-12 15:00:00 15.5 4 Sur 11 Sur 0 -- -- 83
2020-05-12 14:00:00 14.5 5 Sur 12 Sur 0.8 -- -- 86
2020-05-12 13:00:00 15 8 Sur 15 Sur 0 -- -- 82
2020-05-12 12:00:00 15.2 5 Sudeste 12 Sudeste 0 -- -- 86
2020-05-12 11:00:00 13.6 0 Calma 8 Norte 0.2 -- -- 95
2020-05-12 10:00:00 12.7 3 Nordeste 9 Este 0.6 -- -- 94
2020-05-12 09:00:00 12.9 5 Sudoeste 14 Este 3.6 -- -- 93
2020-05-12 08:00:00 13.2 4 Nordeste 9 Sudeste 5.2 -- -- 91
2020-05-12 07:00:00 14.6 6 Sur 12 Sudoeste 4 -- -- 91
2020-05-12 06:00:00 15.2 3 Nordeste 6 Norte 0 -- -- 89
2020-05-12 05:00:00 15.3 5 Sudeste 21 Oeste 0 -- -- 85
2020-05-12 04:00:00 15.7 15 Noroeste 21 Oeste 0 -- -- 82
2020-05-12 03:00:00 15.2 13 Oeste 26 Noroeste 0 -- -- 80
2020-05-12 02:00:00 15.3 17 Noroeste 32 Noroeste 0 -- -- 78
2020-05-12 01:00:00 15.5 14 Noroeste 21 Noroeste 0 -- -- 79
2020-05-12 00:00:00 16.2 14 Noroeste 26 Oeste 0 -- -- 75
2020-05-11 23:00:00 16.6 14 Norte 24 Noroeste 0 -- -- 76
2020-05-11 22:00:00 17.5 9 Noroeste 22 Noroeste 0 -- -- 72
2020-05-11 21:00:00 18.4 12 Oeste 19 Norte 0 -- -- 69
2020-05-11 20:00:00 19.6 13 Norte 31 Noroeste 0 -- -- 66
2020-05-11 19:00:00 20.2 21 Oeste 37 Oeste 0 -- -- 65
2020-05-11 18:00:00 20.5 21 Oeste 33 Oeste 0 -- -- 64
2020-05-11 17:00:00 20.6 23 Oeste 42 Oeste 0 -- -- 64
2020-05-11 16:00:00 21.1 23 Oeste 40 Oeste 0 -- -- 59
2020-05-11 15:00:00 20.5 24 Sudoeste 40 Oeste 0 -- -- 60
2020-05-11 14:00:00 20.5 22 Oeste 45 Oeste 0 -- -- 60
2020-05-11 13:00:00 20.2 19 Sudoeste 40 Oeste 0 -- -- 67
2020-05-11 12:00:00 18.7 19 Oeste 35 Sudoeste 0 -- -- 73
2020-05-11 11:00:00 17.9 19 Oeste 33 Sudoeste 0 -- -- 76
2020-05-11 10:00:00 16.7 13 Sudoeste 25 Sudoeste 0 -- -- 84
2020-05-11 09:00:00 15.9 3 Noroeste 15 Noroeste 0 -- -- 86
2020-05-11 08:00:00 15.7 10 Oeste 23 Oeste 0 -- -- 85
2020-05-11 07:00:00 15.1 12 Oeste 26 Oeste 0 -- -- 87
2020-05-11 06:00:00 14.6 7 Noroeste 18 Noroeste 0 -- -- 87
2020-05-11 05:00:00 14.3 8 Noroeste 20 Oeste 0 -- -- 86
2020-05-11 04:00:00 14.1 11 Noroeste 17 Noroeste 0 -- -- 87
2020-05-11 03:00:00 14.3 10 Noroeste 17 Noroeste 0 -- -- 86
2020-05-11 02:00:00 14.3 9 Noroeste 17 Noroeste 0 -- -- 86
2020-05-11 01:00:00 14.4 8 Noroeste 12 Noroeste 0 -- -- 85
2020-05-11 00:00:00 15.3 11 Oeste 19 Oeste 0 -- -- 81
2020-05-10 23:00:00 15.7 11 Oeste 22 Noroeste 0 -- -- 78
2020-05-10 22:00:00 16.2 14 Oeste 30 Oeste 0 -- -- 75
2020-05-10 21:00:00 17.2 18 Oeste 41 Oeste 0 -- -- 70
2020-05-10 20:00:00 19 22 Oeste 48 Noroeste 0 -- -- 60
2020-05-10 19:00:00 19.4 23 Noroeste 48 Oeste 0 -- -- 59
2020-05-10 18:00:00 20.1 30 Oeste 53 Oeste 0 -- -- 56
2020-05-10 17:00:00 20.4 28 Oeste 49 Oeste 0 -- -- 60
2020-05-10 16:00:00 18.8 19 Oeste 42 Oeste 0 -- -- 75
2020-05-10 15:00:00 18 17 Oeste 36 Oeste 0 -- -- 82
2020-05-10 14:00:00 16.9 17 Oeste 60 Noroeste 0 -- -- 87
2020-05-10 13:00:00 16.9 13 Noroeste 24 Noroeste 1.6 -- -- 90
2020-05-10 12:00:00 15.4 8 Norte 25 Norte 1.8 -- -- 87
2020-05-10 11:00:00 16.4 13 Norte 25 Norte 0 -- -- 77
2020-05-10 10:00:00 15.9 12 Noroeste 23 Noroeste 0.4 -- -- 88
2020-05-10 09:00:00 14.4 10 Noroeste 20 Noroeste 0.8 -- -- 91
2020-05-10 08:00:00 14 11 Noroeste 19 Noroeste 0.2 -- -- 92
2020-05-10 07:00:00 14 12 Noroeste 25 Noroeste 0 -- -- 88
2020-05-10 06:00:00 13.9 11 Noroeste 21 Noroeste 0.2 -- -- 89
2020-05-10 05:00:00 13.8 7 Noroeste 24 Noroeste 0 -- -- 89
2020-05-10 04:00:00 13.8 12 Noroeste 22 Noroeste 0 -- -- 87
2020-05-10 03:00:00 14.3 9 Noroeste 22 Noroeste 0 -- -- 85
2020-05-10 02:00:00 14.8 17 Noroeste 33 Oeste 0.2 -- -- 85
2020-05-10 01:00:00 15.8 12 Noroeste 30 Oeste 0 -- -- 81
2020-05-10 00:00:00 16 14 Noroeste 25 Oeste 0 -- -- 80
2020-05-09 23:00:00 15.9 14 Noroeste 23 Noroeste 0 -- -- 88
2020-05-09 22:00:00 16.4 15 Oeste 28 Oeste 0 -- -- 85
2020-05-09 21:00:00 18.4 21 Oeste 36 Noroeste 0 -- -- 68
2020-05-09 20:00:00 20.1 22 Noroeste 42 Oeste 0 -- -- 61
2020-05-09 19:00:00 20.3 27 Oeste 42 Oeste 0 -- -- 57
2020-05-09 18:00:00 21.9 28 Oeste 40 Noroeste 0 -- -- 50
2020-05-09 17:00:00 22.7 24 Noroeste 41 Noroeste 0 -- -- 49
2020-05-09 16:00:00 21.8 23 Noroeste 40 Oeste 0 -- -- 51
2020-05-09 15:00:00 22.5 20 Noroeste 37 Oeste 0 -- -- 49
2020-05-09 14:00:00 22.6 19 Oeste 40 Oeste 0 -- -- 49
2020-05-09 13:00:00 21.8 19 Noroeste 42 Oeste 0 -- -- 52
2020-05-09 12:00:00 20.3 22 Noroeste 41 Noroeste 0 -- -- 57
2020-05-09 11:00:00 19 22 Noroeste 39 Noroeste 0 -- -- 62
2020-05-09 10:00:00 17.6 18 Noroeste 34 Noroeste 0 -- -- 72
2020-05-09 09:00:00 16.1 15 Noroeste 33 Noroeste 0 -- -- 74
2020-05-09 08:00:00 14.3 20 Noroeste 35 Noroeste 0 -- -- 83
2020-05-09 07:00:00 14.9 11 Noroeste 25 Noroeste 0 -- -- 82
2020-05-09 06:00:00 15.4 6 Noroeste 28 Noroeste 0 -- -- 84
2020-05-09 05:00:00 15.4 15 Noroeste 28 Norte 0 -- -- 84
2020-05-09 04:00:00 15.9 12 Noroeste 24 Noroeste 0 -- -- 83
2020-05-09 03:00:00 16 14 Noroeste 21 Noroeste 0 -- -- 83
2020-05-09 02:00:00 16.8 12 Noroeste 19 Noroeste 0 -- -- 81
2020-05-09 01:00:00 16.9 10 Norte 15 Noroeste 0 -- -- 80
2020-05-09 00:00:00 17.4 3 Norte 11 Norte 0 -- -- 77
2020-05-08 23:00:00 18.1 7 Noroeste 14 Oeste 0 -- -- 77
2020-05-08 22:00:00 18.7 3 Noroeste 6 Sudoeste 0 -- -- 73
2020-05-08 21:00:00 21.5 3 Sur 9 Sur 0 -- -- 60
2020-05-08 20:00:00 22.9 5 Sur 16 Sudeste 0 -- -- 54
2020-05-08 19:00:00 23.8 8 Sur 14 Sudeste 0 -- -- 53
2020-05-08 18:00:00 23.8 7 Sur 19 Sur 0 -- -- 56
2020-05-08 17:00:00 22.8 10 Sudeste 21 Sudeste 0 -- -- 62
2020-05-08 16:00:00 22.3 12 Sudeste 22 Sudeste 0 -- -- 65
2020-05-08 15:00:00 22.5 12 Sudeste 25 Sudeste 0 -- -- 63
2020-05-08 14:00:00 21.7 17 Sudeste 30 Sudeste 0 -- -- 64
2020-05-08 13:00:00 22.1 14 Sudeste 26 Este 0 -- -- 61
2020-05-08 12:00:00 22.3 14 Sudeste 27 Sur 0 -- -- 61
2020-05-08 11:00:00 22.1 12 Sudeste 24 Sur 0 -- -- 60
2020-05-08 10:00:00 21.6 8 Sudeste 15 Sur 0 -- -- 61
2020-05-08 09:00:00 20.1 4 Sudeste 10 Sudeste 0 -- -- 66
2020-05-08 08:00:00 17.7 3 Sudeste 14 Sudeste 0 -- -- 74
2020-05-08 07:00:00 18.1 7 Este 16 Sudeste 0 -- -- 73
2020-05-08 06:00:00 18.6 9 Sur 22 Sur 0 -- -- 68
2020-05-08 05:00:00 19.2 9 Sudeste 20 Sudeste 0 -- -- 64
2020-05-08 04:00:00 19.5 12 Sudeste 24 Sudeste 0 -- -- 63
2020-05-08 03:00:00 19.3 12 Sudeste 24 Sudeste 0 -- -- 64
2020-05-08 02:00:00 19 9 Sudeste 23 Sudeste 0 -- -- 66
2020-05-08 01:00:00 18.9 11 Sudeste 23 Sudeste 0 -- -- 70
2020-05-08 00:00:00 19 11 Sudeste 19 Sudeste 0 -- -- 71
2020-05-07 23:00:00 18.8 8 Sudeste 20 Sudeste 0 -- -- 74
2020-05-07 22:00:00 19.3 9 Sudeste 28 Sudeste 0 -- -- 70
2020-05-07 21:00:00 20 13 Sudeste 30 Sudeste 0 -- -- 68
2020-05-07 20:00:00 21.1 21 Sudeste 40 Sudeste 0 -- -- 64
2020-05-07 19:00:00 21.7 19 Sudeste 37 Sudeste 0 -- -- 66
2020-05-07 18:00:00 21.7 17 Sudeste 35 Sudeste 0 -- -- 67
2020-05-07 17:00:00 21.6 23 Sudeste 35 Sudeste 0 -- -- 67
2020-05-07 16:00:00 21.2 20 Sudeste 40 Este 0 -- -- 71
2020-05-07 15:00:00 20.7 25 Sudeste 39 Sudeste 0 -- -- 74
2020-05-07 14:00:00 20.6 23 Sudeste 33 Sudeste 0 -- -- 75
2020-05-07 13:00:00 19.4 19 Sudeste 39 Este 0 -- -- 80
2020-05-07 12:00:00 19.8 26 Sudeste 43 Sudeste 0 -- -- 79
2020-05-07 11:00:00 19.1 24 Sudeste 41 Sudeste 0 -- -- 83
2020-05-07 10:00:00 18.6 25 Sudeste 42 Este 0 -- -- 84
2020-05-07 09:00:00 17.9 19 Sudeste 33 Sudeste 0 -- -- 87
2020-05-07 08:00:00 17.5 16 Sudeste 29 Sudeste 0 -- -- 90
2020-05-07 07:00:00 18 15 Sudeste 36 Sudeste 0 -- -- 85
2020-05-07 06:00:00 18.4 13 Sudeste 31 Sudeste 0 -- -- 81
2020-05-07 05:00:00 19 17 Sudeste 31 Este 0 -- -- 75
2020-05-07 04:00:00 20.1 12 Sudeste 29 Este 0 -- -- 59
2020-05-07 03:00:00 20.4 15 Sudeste 35 Este 0 -- -- 58
2020-05-07 02:00:00 19.6 17 Sudeste 30 Sudeste 0 -- -- 65
2020-05-07 01:00:00 19.5 15 Sudeste 26 Este 0 -- -- 68
2020-05-07 00:00:00 20.1 9 Sudeste 19 Sudeste 0 -- -- 62
2020-05-06 23:00:00 18.8 2 Nordeste 10 Este 0 -- -- 82
2020-05-06 22:00:00 19.8 3 Este 16 Sudeste 0 -- -- 78
2020-05-06 21:00:00 23.1 6 Este 10 Sudeste 0 -- -- 53
2020-05-06 20:00:00 25.2 4 Sudeste 10 Sudeste 0 -- -- 48
2020-05-06 19:00:00 27.2 3 Nordeste 14 Sur 0 -- -- 50
2020-05-06 18:00:00 28.4 8 Sudeste 18 Sur 0 -- -- 35
2020-05-06 17:00:00 28 9 Sur 21 Sur 0 -- -- 42
2020-05-06 16:00:00 27.8 13 Sur 20 Sur 0 -- -- 44
2020-05-06 15:00:00 27.4 10 Sudeste 18 Sur 0 -- -- 39
2020-05-06 14:00:00 27.1 12 Sudeste 18 Sur 0 -- -- 40
2020-05-06 13:00:00 26.8 13 Sur 21 Sur 0 -- -- 42
2020-05-06 12:00:00 26.6 8 Sur 14 Sur 0 -- -- 43
2020-05-06 11:00:00 25.4 4 Sur 9 Sudeste 0 -- -- 43
2020-05-06 10:00:00 22.8 0 Calma 13 Noroeste 0 -- -- 46
2020-05-06 09:00:00 19.2 10 Noroeste 27 Noroeste 0 -- -- 56
2020-05-06 08:00:00 16.9 19 Noroeste 34 Noroeste 0 -- -- 62
2020-05-06 07:00:00 17.5 22 Noroeste 33 Noroeste 0 -- -- 61
2020-05-06 06:00:00 16.6 24 Noroeste 35 Noroeste 0 -- -- 67
2020-05-06 05:00:00 16.9 25 Noroeste 36 Noroeste 0 -- -- 68
2020-05-06 04:00:00 16.9 26 Noroeste 46 Oeste 0 -- -- 71
2020-05-06 03:00:00 17.2 29 Noroeste 45 Noroeste 0 -- -- 69
2020-05-06 02:00:00 17.7 32 Noroeste 46 Noroeste 0 -- -- 66
2020-05-06 01:00:00 18.1 35 Noroeste 50 Noroeste 0 -- -- 62
2020-05-06 00:00:00 18.9 34 Noroeste 46 Oeste 0 -- -- 62
2020-05-05 23:00:00 19.5 30 Noroeste 41 Oeste 0 -- -- 60
2020-05-05 22:00:00 21.3 18 Noroeste 30 Oeste 0 -- -- 56
2020-05-05 21:00:00 24.7 16 Oeste 29 Noroeste 0 -- -- 48
2020-05-05 20:00:00 28.4 16 Noroeste 35 Noroeste 0 -- -- 37
2020-05-05 19:00:00 29.2 21 Noroeste 36 Oeste 0 -- -- 35
2020-05-05 18:00:00 29.4 24 Noroeste 40 Oeste 0 -- -- 33
2020-05-05 17:00:00 29.6 25 Noroeste 39 Oeste 0 -- -- 33
2020-05-05 16:00:00 29.5 22 Noroeste 34 Oeste 0 -- -- 31
2020-05-05 15:00:00 29.1 21 Noroeste 35 Oeste 0 -- -- 30
2020-05-05 14:00:00 27.9 21 Oeste 32 Oeste 0 -- -- 31
2020-05-05 13:00:00 26.6 21 Oeste 34 Oeste 0 -- -- 33
2020-05-05 12:00:00 24.3 22 Noroeste 40 Noroeste 0 -- -- 44
2020-05-05 11:00:00 22 26 Noroeste 42 Noroeste 0 -- -- 53
2020-05-05 10:00:00 20.1 17 Noroeste 30 Noroeste 0 -- -- 59
2020-05-05 09:00:00 18.1 17 Noroeste 27 Noroeste 0 -- -- 64
2020-05-05 08:00:00 16.4 12 Noroeste 26 Noroeste 0 -- -- 73
2020-05-05 07:00:00 16.9 13 Noroeste 24 Noroeste 0 -- -- 74
2020-05-05 06:00:00 17 15 Noroeste 30 Noroeste 0 -- -- 76
2020-05-05 05:00:00 16.9 23 Noroeste 33 Noroeste 0 -- -- 76
2020-05-05 04:00:00 17.2 24 Noroeste 34 Noroeste 0 -- -- 77
2020-05-05 03:00:00 17.6 23 Noroeste 36 Noroeste 0 -- -- 79
2020-05-05 02:00:00 18.1 19 Noroeste 38 Noroeste 0 -- -- 79
2020-05-05 01:00:00 18.4 29 Noroeste 49 Oeste 0 -- -- 79
2020-05-05 00:00:00 19.2 35 Noroeste 48 Oeste 0 -- -- 75
2020-05-04 23:00:00 19.7 32 Noroeste 47 Oeste 0 -- -- 74
2020-05-04 22:00:00 20.2 32 Noroeste 45 Noroeste 0 -- -- 73
2020-05-04 21:00:00 22.1 28 Noroeste 39 Noroeste 0 -- -- 65
2020-05-04 20:00:00 25.7 21 Oeste 28 Oeste 0 -- -- 56
2020-05-04 19:00:00 28.5 5 Sudoeste 10 Sudoeste 0 -- -- 42
2020-05-04 18:00:00 28.3 6 Sur 11 Sudeste 0 -- -- 40
2020-05-04 17:00:00 27.6 6 Sur 17 Sudeste 0 -- -- 40
2020-05-04 16:00:00 27.2 9 Sudeste 21 Sudoeste 0 -- -- 40
2020-05-04 15:00:00 27.1 13 Sur 22 Sudoeste 0 -- -- 43
2020-05-04 14:00:00 26.6 15 Sur 28 Sur 0 -- -- 39
2020-05-04 13:00:00 26.8 11 Sur 22 Sudeste 0 -- -- 40
2020-05-04 12:00:00 25.7 11 Sur 20 Sur 0 -- -- 45
2020-05-04 11:00:00 24.3 9 Sur 18 Sur 0 -- -- 52
2020-05-04 10:00:00 23.1 9 Sur 14 Sudeste 0 -- -- 50
2020-05-04 09:00:00 22.1 6 Sur 12 Sudeste 0 -- -- 49
2020-05-04 08:00:00 22.1 5 Sudeste 19 Sudeste 0 -- -- 45
2020-05-04 07:00:00 21.9 5 Sudeste 23 Sudeste 0 -- -- 44
2020-05-04 06:00:00 22.1 14 Sudeste 27 Sudeste 0 -- -- 44
2020-05-04 05:00:00 21.2 12 Sudeste 20 Sudeste 0 -- -- 47
2020-05-04 04:00:00 19.6 3 Sudeste 12 Este 0 -- -- 56
2020-05-04 03:00:00 19.1 3 Este 13 Sudeste 0 -- -- 63
2020-05-04 02:00:00 19 5 Norte 18 Este 0 -- -- 67
2020-05-04 01:00:00 19.4 9 Sudeste 18 Sudeste 0 -- -- 67
2020-05-04 00:00:00 20 8 Sudeste 19 Sudeste 0 -- -- 64
2020-05-03 23:00:00 20 10 Sudeste 19 Este 0 -- -- 65
2020-05-03 22:00:00 20.1 4 Este 16 Sudeste 0 -- -- 64
2020-05-03 21:00:00 21.2 7 Sudeste 13 Sur 0 -- -- 60
2020-05-03 20:00:00 23.6 9 Sudeste 17 Sudeste 0 -- -- 53
2020-05-03 19:00:00 24.8 8 Sudeste 19 Sudeste 0 -- -- 52
2020-05-03 18:00:00 24.9 12 Sudeste 21 Este 0 -- -- 49
2020-05-03 17:00:00 25 11 Sudeste 22 Sur 0 -- -- 52
2020-05-03 16:00:00 24.6 10 Sudeste 19 Este 0 -- -- 56
2020-05-03 15:00:00 24.1 10 Sudeste 22 Sudeste 0 -- -- 58
2020-05-03 14:00:00 24.9 9 Sudeste 21 Sudeste 0 -- -- 54
2020-05-03 13:00:00 24.3 11 Sudeste 21 Sudeste 0 -- -- 54
2020-05-03 12:00:00 24.8 9 Sudeste 22 Sudeste 0 -- -- 54
2020-05-03 11:00:00 23.9 11 Sudeste 20 Sudeste 0 -- -- 57
2020-05-03 10:00:00 22.3 4 Sur 9 Sudeste 0 -- -- 68
2020-05-03 09:00:00 19.5 2 Sur 7 Sudoeste 0 -- -- 76
2020-05-03 08:00:00 17.4 0 Calma 7 Nordeste 0 -- -- 79
2020-05-03 07:00:00 17 3 Norte 5 Norte 0 -- -- 83
2020-05-03 06:00:00 17.2 2 Norte 8 Norte 0 -- -- 77
2020-05-03 05:00:00 17.5 6 Nordeste 8 Nordeste 0 -- -- 76
2020-05-03 04:00:00 17.7 4 Nordeste 6 Nordeste 0 -- -- 75
2020-05-03 03:00:00 18.2 4 Norte 8 Nordeste 0 -- -- 74
2020-05-03 02:00:00 19 6 Nordeste 8 Nordeste 0 -- -- 70
2020-05-03 01:00:00 19.4 4 Nordeste 9 Sudeste 0 -- -- 68
2020-05-03 00:00:00 20.7 2 Oeste 9 Nordeste 0 -- -- 62
2020-05-02 23:00:00 21 5 Norte 14 Noroeste 0 -- -- 61
2020-05-02 22:00:00 22.1 3 Noroeste 6 Noroeste 0 -- -- 56
2020-05-02 21:00:00 25 2 Norte 6 Nordeste 0 -- -- 56
2020-05-02 20:00:00 27.1 4 Sudoeste 8 Nordeste 0 -- -- 49
2020-05-02 19:00:00 28.1 4 Sudeste 13 Sudeste 0 -- -- 48
2020-05-02 18:00:00 27.2 8 Sur 15 Sudeste 0 -- -- 50
2020-05-02 17:00:00 28.5 6 Sudeste 13 Sur 0 -- -- 48
2020-05-02 16:00:00 28 7 Sur 14 Sur 0 -- -- 48
2020-05-02 15:00:00 27.8 6 Este 13 Este 0 -- -- 45
2020-05-02 14:00:00 27.4 6 Sudeste 12 Sur 0 -- -- 47
2020-05-02 13:00:00 26.5 7 Este 14 Este 0 -- -- 50
2020-05-02 12:00:00 26.8 6 Sudeste 12 Sur 0 -- -- 46
2020-05-02 11:00:00 26.9 5 Este 9 Este 0 -- -- 45
2020-05-02 10:00:00 26 2 Nordeste 5 Noroeste 0 -- -- 49
2020-05-02 09:00:00 23.3 2 Nordeste 9 Nordeste 0 -- -- 56
2020-05-02 08:00:00 18.7 7 Norte 15 Noroeste 0 -- -- 69
2020-05-02 07:00:00 19.7 6 Norte 18 Noroeste 0 -- -- 64
2020-05-02 06:00:00 19.2 9 Noroeste 15 Noroeste 0 -- -- 65
2020-05-02 05:00:00 19.7 10 Noroeste 15 Noroeste 0 -- -- 64
2020-05-02 04:00:00 19.2 10 Noroeste 23 Noroeste 0 -- -- 67
2020-05-02 03:00:00 19.5 17 Noroeste 21 Noroeste 0 -- -- 68
2020-05-02 02:00:00 20.3 15 Noroeste 21 Noroeste 0 -- -- 67
2020-05-02 01:00:00 20.8 15 Noroeste 21 Noroeste 0 -- -- 66
2020-05-02 00:00:00 21.5 14 Noroeste 24 Noroeste 0 -- -- 65
2020-05-01 23:00:00 22.2 9 Noroeste 24 Noroeste 0 -- -- 62
2020-05-01 22:00:00 22.7 17 Noroeste 25 Noroeste 0 -- -- 61
2020-05-01 21:00:00 24.9 15 Noroeste 31 Noroeste 0 -- -- 54
2020-05-01 20:00:00 27.5 17 Noroeste 24 Noroeste 0 -- -- 48
2020-05-01 19:00:00 29.9 14 Noroeste 32 Noroeste 0 -- -- 43
2020-05-01 18:00:00 29.8 15 Noroeste 33 Noroeste 0 -- -- 43
2020-05-01 17:00:00 28.4 6 Este 15 Sudeste 0 -- -- 49
2020-05-01 16:00:00 26.7 10 Este 19 Este 0 -- -- 51
2020-05-01 15:00:00 27 5 Sudeste 15 Este 0 -- -- 52
2020-05-01 14:00:00 25.5 9 Este 15 Este 0 -- -- 53
2020-05-01 13:00:00 24.2 7 Este 21 Oeste 0 -- -- 55
2020-05-01 12:00:00 24.7 10 Noroeste 27 Oeste 0 -- -- 52
2020-05-01 11:00:00 22.2 12 Noroeste 28 Norte 0 -- -- 59
2020-05-01 10:00:00 19.2 18 Noroeste 33 Noroeste 0 -- -- 66
2020-05-01 09:00:00 16.8 19 Noroeste 31 Noroeste 0 -- -- 73
2020-05-01 08:00:00 15.3 23 Noroeste 34 Noroeste 0 -- -- 78
2020-05-01 07:00:00 15.3 25 Noroeste 34 Noroeste 0 -- -- 78
2020-05-01 06:00:00 15.8 20 Noroeste 33 Noroeste 0 -- -- 76
2020-05-01 05:00:00 15.5 19 Noroeste 33 Noroeste 0 -- -- 79
2020-05-01 04:00:00 15.9 21 Noroeste 32 Norte 0 -- -- 76
2020-05-01 03:00:00 16 19 Noroeste 30 Noroeste 0 -- -- 75
2020-05-01 02:00:00 15.8 21 Noroeste 36 Noroeste 0 -- -- 77
2020-05-01 01:00:00 16.3 19 Noroeste 34 Noroeste 0 -- -- 75
2020-05-01 00:00:00 16.1 20 Noroeste 43 Noroeste 0 -- -- 76
2020-04-30 23:00:00 16.1 22 Noroeste 40 Noroeste 0 -- -- 76
2020-04-30 22:00:00 16.9 24 Noroeste 35 Noroeste 0 -- -- 72
2020-04-30 21:00:00 18.6 23 Oeste 35 Oeste 0 -- -- 67
2020-04-30 20:00:00 21.6 17 Oeste 37 Oeste 0 -- -- 57
2020-04-30 19:00:00 23 18 Oeste 34 Oeste 0 -- -- 55
2020-04-30 18:00:00 22.8 22 Noroeste 36 Noroeste 0 -- -- 55
2020-04-30 17:00:00 23.8 26 Noroeste 40 Noroeste 0 -- -- 54
2020-04-30 16:00:00 22.8 23 Oeste 39 Oeste 0 -- -- 60
2020-04-30 15:00:00 22.1 30 Noroeste 41 Oeste 0 -- -- 62
2020-04-30 14:00:00 21.4 25 Noroeste 40 Noroeste 0 -- -- 65
2020-04-30 13:00:00 20.7 18 Oeste 32 Oeste 0 -- -- 66
2020-04-30 12:00:00 19.7 19 Oeste 30 Oeste 0 -- -- 68
2020-04-30 11:00:00 18.9 16 Noroeste 27 Noroeste 0 -- -- 72
2020-04-30 10:00:00 17.2 8 Noroeste 19 Noroeste 0 -- -- 77
2020-04-30 09:00:00 15.7 13 Noroeste 21 Noroeste 0 -- -- 81
2020-04-30 08:00:00 13.8 12 Noroeste 18 Noroeste 0 -- -- 88
2020-04-30 07:00:00 13.7 11 Noroeste 22 Oeste 0 -- -- 87
2020-04-30 06:00:00 13.7 10 Noroeste 32 Noroeste 0 -- -- 85
2020-04-30 05:00:00 14.2 21 Noroeste 32 Noroeste 0 -- -- 82
2020-04-30 04:00:00 13.3 18 Noroeste 30 Noroeste 0 -- -- 82
2020-04-30 03:00:00 13.6 20 Noroeste 31 Noroeste 0 -- -- 79
2020-04-30 02:00:00 14 19 Noroeste 35 Noroeste 0 -- -- 78
2020-04-30 01:00:00 14.3 22 Noroeste 36 Noroeste 0 -- -- 73
2020-04-30 00:00:00 14.6 23 Noroeste 40 Oeste 0 -- -- 72
2020-04-29 23:00:00 15.5 28 Noroeste 39 Noroeste 0 -- -- 68
2020-04-29 22:00:00 16.4 29 Oeste 39 Noroeste 0 -- -- 64
2020-04-29 21:00:00 18 26 Noroeste 37 Oeste 0 -- -- 55
2020-04-29 20:00:00 20 23 Noroeste 39 Oeste 0 -- -- 51
2020-04-29 19:00:00 21.9 26 Oeste 43 Oeste 0 -- -- 48
2020-04-29 18:00:00 23.1 28 Oeste 48 Oeste 0 -- -- 49
2020-04-29 17:00:00 24 19 Oeste 39 Oeste 0 -- -- 46
2020-04-29 16:00:00 23.9 21 Noroeste 38 Oeste 0 -- -- 44
2020-04-29 15:00:00 23.8 17 Noroeste 37 Oeste 0 -- -- 42
2020-04-29 14:00:00 23.5 17 Noroeste 35 Oeste 0 -- -- 40
2020-04-29 13:00:00 22.4 16 Noroeste 31 Oeste 0 -- -- 41
2020-04-29 12:00:00 21.1 9 Oeste 19 Oeste 0 -- -- 46
2020-04-29 11:00:00 19.4 9 Noroeste 24 Noroeste 0 -- -- 56
2020-04-29 10:00:00 16.8 15 Noroeste 26 Noroeste 0 -- -- 61
2020-04-29 09:00:00 14.7 21 Noroeste 29 Noroeste 0 -- -- 67
2020-04-29 08:00:00 13.1 14 Noroeste 24 Noroeste 0 -- -- 74
2020-04-29 07:00:00 13 15 Noroeste 31 Noroeste 0 -- -- 75
2020-04-29 06:00:00 13.1 18 Noroeste 29 Noroeste 0 -- -- 77
2020-04-29 05:00:00 13.8 22 Noroeste 31 Noroeste 0 -- -- 76
2020-04-29 04:00:00 13.6 21 Noroeste 30 Noroeste 0 -- -- 80
2020-04-29 03:00:00 14.1 21 Noroeste 29 Noroeste 0 -- -- 78
2020-04-29 02:00:00 14.3 18 Noroeste 30 Noroeste 0 -- -- 77
2020-04-29 01:00:00 14.9 21 Noroeste 37 Noroeste 0 -- -- 75
2020-04-29 00:00:00 15.5 22 Noroeste 36 Noroeste 0 -- -- 76
2020-04-28 23:00:00 15.9 18 Noroeste 29 Noroeste 0 -- -- 77
2020-04-28 22:00:00 16.8 16 Noroeste 24 Oeste 0 -- -- 77
2020-04-28 21:00:00 18.2 14 Noroeste 22 Oeste 0 -- -- 70
2020-04-28 20:00:00 20.3 15 Noroeste 31 Noroeste 0 -- -- 63
2020-04-28 19:00:00 20 17 Noroeste 27 Oeste 0 -- -- 64
2020-04-28 18:00:00 19.8 18 Oeste 40 Oeste 0 -- -- 64
2020-04-28 17:00:00 20.2 20 Oeste 34 Sudoeste 0 -- -- 64
2020-04-28 16:00:00 21.3 17 Oeste 37 Sudoeste 0 -- -- 57
2020-04-28 15:00:00 20.8 13 Oeste 36 Sudoeste 0 -- -- 59
2020-04-28 14:00:00 18.6 17 Oeste 29 Oeste 0 -- -- 68
2020-04-28 13:00:00 18.5 16 Oeste 27 Oeste 0 -- -- 68
2020-04-28 12:00:00 16.5 14 Noroeste 27 Noroeste 0 -- -- 77
2020-04-28 11:00:00 15.1 19 Noroeste 28 Oeste 0 -- -- 81
2020-04-28 10:00:00 14.6 18 Noroeste 30 Noroeste 0 -- -- 81
2020-04-28 09:00:00 13.6 15 Noroeste 28 Noroeste 0 -- -- 82
2020-04-28 08:00:00 12.9 18 Noroeste 27 Noroeste 0 -- -- 83
2020-04-28 07:00:00 12.8 16 Noroeste 28 Noroeste 0 -- -- 85
2020-04-28 06:00:00 12.8 17 Noroeste 28 Noroeste 0 -- -- 85
2020-04-28 05:00:00 12.8 18 Oeste 26 Oeste 0 -- -- 85
2020-04-28 04:00:00 12.4 12 Noroeste 25 Noroeste 0 -- -- 87
2020-04-28 03:00:00 12.6 18 Noroeste 26 Noroeste 0 -- -- 87
2020-04-28 02:00:00 13.3 20 Noroeste 29 Noroeste 0 -- -- 85
2020-04-28 01:00:00 13.3 13 Noroeste 24 Noroeste 0 -- -- 86
2020-04-28 00:00:00 13.9 12 Noroeste 23 Noroeste 0 -- -- 85
2020-04-27 23:00:00 14.5 15 Noroeste 24 Noroeste 0 -- -- 84
2020-04-27 22:00:00 15.3 18 Oeste 28 Oeste 0 -- -- 80
2020-04-27 21:00:00 16.5 17 Oeste 32 Sudoeste 0 -- -- 77
2020-04-27 20:00:00 18.1 20 Oeste 43 Sudoeste 0 -- -- 68
2020-04-27 19:00:00 18.5 23 Oeste 38 Oeste 0 -- -- 69
2020-04-27 18:00:00 20.2 22 Oeste 42 Oeste 0 -- -- 58
2020-04-27 17:00:00 20 22 Oeste 40 Oeste 0 -- -- 63
2020-04-27 16:00:00 19.6 16 Oeste 33 Oeste 0 -- -- 64
2020-04-27 15:00:00 19.1 18 Oeste 31 Oeste 0 -- -- 61
2020-04-27 14:00:00 18.3 10 Oeste 29 Oeste 0 -- -- 58
2020-04-27 13:00:00 17.3 11 Sudoeste 28 Oeste 0 -- -- 60
2020-04-27 12:00:00 16.8 10 Oeste 21 Oeste 0 -- -- 69
2020-04-27 11:00:00 16.3 8 Oeste 17 Oeste 0 -- -- 76
2020-04-27 10:00:00 15.2 8 Noroeste 14 Noroeste 0 -- -- 79
2020-04-27 09:00:00 13.3 10 Noroeste 14 Noroeste 0 -- -- 82
2020-04-27 08:00:00 11.5 9 Noroeste 17 Noroeste 0 -- -- 86
2020-04-27 07:00:00 11.4 13 Noroeste 18 Noroeste 0 -- -- 85
2020-04-27 06:00:00 11.6 10 Noroeste 16 Noroeste 0 -- -- 84
2020-04-27 05:00:00 11.6 10 Noroeste 15 Noroeste 0 -- -- 85
2020-04-27 04:00:00 12 11 Noroeste 14 Noroeste 0 -- -- 84
2020-04-27 03:00:00 12.4 10 Noroeste 18 Noroeste 0 -- -- 83
2020-04-27 02:00:00 12.7 11 Noroeste 18 Noroeste 0 -- -- 81
2020-04-27 01:00:00 13.6 15 Noroeste 26 Noroeste 0 -- -- 75
2020-04-27 00:00:00 13.6 18 Noroeste 27 Oeste 0 -- -- 72